Time;durP1;ratioP1;P1;durP2;ratioP2;P2;SDS_P1;SDS_P2;PMS_P1;PMS_P2;Temp;Humidity;BMP_temperature;BMP_pressure;BME280_temperature;BME280_humidity;BME280_pressure;Samples;Min_cycle;Max_cycle;Signal;HPM_P1;HPM_P2
2024/03/22 00:00:11;;;;;;;12.73;10.93;;;;;;;8.16;71.68;98847.66;5035565;28;20033;-75
2024/03/22 00:02:39;;;;;;;12.38;10.85;;;;;;;8.08;71.90;98831.78;5009388;28;20079;-77
2024/03/22 00:05:04;;;;;;;11.98;10.77;;;;;;;8.09;72.21;98849.53;5036573;28;20029;-77
2024/03/22 00:07:30;;;;;;;13.10;11.80;;;;;;;8.02;71.63;98851.44;5040682;28;20551;-77
2024/03/22 00:09:56;;;;;;;14.15;11.23;;;;;;;7.98;71.63;98844.81;5006061;28;20039;-77
2024/03/22 00:12:22;;;;;;;12.30;11.00;;;;;;;7.80;72.11;98809.81;4991160;28;20022;-77
2024/03/22 00:14:47;;;;;;;11.48;10.35;;;;;;;7.80;71.64;98819.72;5021042;28;20044;-77
2024/03/22 00:17:13;;;;;;;12.52;11.32;;;;;;;7.77;71.63;98822.84;5038151;28;20877;-77
2024/03/22 00:19:38;;;;;;;12.05;10.85;;;;;;;7.75;71.39;98839.13;5015892;28;20041;-77
2024/03/22 00:22:03;;;;;;;11.75;10.55;;;;;;;7.71;71.84;98823.66;5019660;28;20025;-76
2024/03/22 00:24:29;;;;;;;12.43;11.13;;;;;;;7.66;71.44;98829.66;5006394;28;20135;-76
2024/03/22 00:26:54;;;;;;;12.38;11.13;;;;;;;7.70;71.87;98836.28;5030564;28;20029;-76
2024/03/22 00:29:20;;;;;;;12.45;11.00;;;;;;;7.64;72.50;98826.38;5031757;28;20120;-76
2024/03/22 00:31:45;;;;;;;12.43;11.23;;;;;;;7.45;72.01;98805.78;5028809;28;20037;-76
2024/03/22 00:34:10;;;;;;;12.30;11.00;;;;;;;7.41;72.51;98805.41;5023197;28;20047;-76
2024/03/22 00:36:36;;;;;;;13.25;11.10;;;;;;;7.54;72.49;98825.97;4978810;28;20028;-75
2024/03/22 00:39:03;;;;;;;11.93;10.77;;;;;;;7.64;73.36;98834.41;5061908;28;20041;-74
2024/03/22 00:41:28;;;;;;;14.00;11.02;;;;;;;7.60;73.02;98835.88;5039842;28;20017;-74
2024/03/22 00:43:54;;;;;;;12.02;10.88;;;;;;;7.66;73.34;98845.75;5041658;28;20037;-74
2024/03/22 00:46:19;;;;;;;12.15;10.95;;;;;;;7.56;72.53;98829.28;5025605;28;20061;-74
2024/03/22 00:48:44;;;;;;;11.73;10.50;;;;;;;7.63;72.88;98840.81;5032021;23;20063;-74
2024/03/22 00:51:10;;;;;;;11.73;10.55;;;;;;;7.60;72.47;98830.50;5050895;28;20025;-75
2024/03/22 00:53:35;;;;;;;11.57;10.05;;;;;;;7.61;72.86;98826.78;5044784;28;20040;-75
2024/03/22 00:56:01;;;;;;;12.30;10.40;;;;;;;7.66;73.21;98829.66;5041871;28;20455;-74
2024/03/22 00:58:27;;;;;;;13.65;10.90;;;;;;;7.59;72.83;98818.13;5035179;28;20041;-74
2024/03/22 01:00:52;;;;;;;13.32;11.10;;;;;;;7.60;72.63;98814.44;5010702;28;20420;-74
2024/03/22 01:03:18;;;;;;;12.57;11.38;;;;;;;7.53;73.12;98816.31;5018214;28;20036;-75
2024/03/22 01:05:44;;;;;;;13.15;11.43;;;;;;;7.43;73.55;98794.47;5011230;28;20120;-75
2024/03/22 01:08:09;;;;;;;12.45;10.60;;;;;;;7.57;73.32;98814.84;5028453;28;20128;-76
2024/03/22 01:10:35;;;;;;;11.70;10.43;;;;;;;7.54;73.13;98821.44;5032772;28;20041;-75
2024/03/22 01:13:00;;;;;;;11.55;10.35;;;;;;;7.56;73.68;98818.56;5034236;28;20041;-75
2024/03/22 01:15:26;;;;;;;12.85;11.00;;;;;;;7.54;73.49;98816.09;5032608;28;20017;-76
2024/03/22 01:17:53;;;;;;;13.38;11.70;;;;;;;7.54;72.69;98817.94;5015865;28;20049;-75
2024/03/22 01:20:18;;;;;;;15.63;12.80;;;;;;;7.42;74.17;98812.38;5032595;28;20025;-76
2024/03/22 01:22:43;;;;;;;14.30;12.88;;;;;;;7.33;73.87;98815.50;5018095;28;20076;-75
2024/03/22 01:25:09;;;;;;;16.17;14.55;;;;;;;7.21;73.61;98822.53;5020149;28;20029;-75
2024/03/22 01:27:36;;;;;;;16.70;14.05;;;;;;;7.09;74.69;98800.91;5033410;28;20041;-76
2024/03/22 01:30:01;;;;;;;15.05;13.15;;;;;;;7.03;74.38;98790.19;5033296;28;20440;-76
2024/03/22 01:32:27;;;;;;;17.60;14.68;;;;;;;7.09;75.09;98802.78;5016601;28;20492;-76
2024/03/22 01:34:52;;;;;;;16.40;13.52;;;;;;;7.03;74.58;98779.47;5040589;28;20172;-76
2024/03/22 01:37:17;;;;;;;18.48;14.80;;;;;;;7.12;75.57;98794.31;5015765;28;20045;-76
2024/03/22 01:39:43;;;;;;;16.90;14.00;;;;;;;7.17;74.87;98794.50;5012361;28;20025;-76
2024/03/22 01:42:08;;;;;;;19.40;17.02;;;;;;;7.26;74.75;98801.31;5044830;28;20468;-76
2024/03/22 01:44:34;;;;;;;20.90;16.95;;;;;;;7.28;75.63;98800.06;5000762;28;20428;-76
2024/03/22 01:46:59;;;;;;;21.75;16.13;;;;;;;7.30;76.28;98797.19;5035255;28;20124;-76
2024/03/22 01:49:25;;;;;;;19.58;16.98;;;;;;;7.18;75.74;98777.41;5012179;28;20104;-76
2024/03/22 01:51:51;;;;;;;19.42;16.13;;;;;;;7.33;75.28;98797.56;5003303;28;20056;-75
2024/03/22 01:54:17;;;;;;;23.48;17.38;;;;;;;7.21;75.32;98777.00;5018276;28;20021;-76
2024/03/22 01:56:42;;;;;;;20.25;16.88;;;;;;;7.21;75.25;98774.31;5027766;28;20029;-76
2024/03/22 01:59:08;;;;;;;22.92;16.95;;;;;;;7.17;76.42;98765.03;5019241;28;20032;-76
2024/03/22 02:01:35;;;;;;;18.95;15.90;;;;;;;7.20;76.52;98764.63;5019167;28;20038;-76
2024/03/22 02:04:00;;;;;;;18.23;15.77;;;;;;;7.32;76.80;98785.22;5015901;28;20165;-76
2024/03/22 02:06:26;;;;;;;18.40;15.10;;;;;;;7.16;77.15;98752.69;4999749;28;20489;-76
2024/03/22 02:08:51;;;;;;;16.92;14.75;;;;;;;7.35;76.23;98781.31;5034338;28;20064;-75
2024/03/22 02:11:17;;;;;;;17.95;15.15;;;;;;;7.28;76.48;98772.47;5034428;28;20037;-74
2024/03/22 02:13:43;;;;;;;21.98;16.20;;;;;;;7.36;76.06;98777.59;5026158;28;20148;-74
2024/03/22 02:16:08;;;;;;;19.35;16.73;;;;;;;7.27;76.31;98765.44;5043220;28;20053;-75
2024/03/22 02:18:34;;;;;;;17.10;15.20;;;;;;;7.23;76.16;98761.53;5031090;28;20073;-75
2024/03/22 02:20:59;;;;;;;18.67;15.35;;;;;;;7.16;75.82;98758.06;5025404;28;20034;-75
2024/03/22 02:23:40;;;;;;;20.40;16.92;;;;;;;7.20;76.05;98770.00;5032298;28;20017;-75
2024/03/22 02:26:06;;;;;;;20.55;18.30;;;;;;;7.02;76.24;98751.06;5033494;28;20063;-75
2024/03/22 02:28:32;;;;;;;22.15;17.77;;;;;;;7.08;75.79;98755.59;5030860;28;20157;-75
2024/03/22 02:30:59;;;;;;;17.65;15.23;;;;;;;7.01;76.41;98749.41;5032745;28;20045;-74
2024/03/22 02:33:24;;;;;;;22.20;16.85;;;;;;;7.05;76.17;98739.97;5029817;28;20104;-74
2024/03/22 02:35:50;;;;;;;18.80;15.48;;;;;;;6.87;75.90;98706.59;5033452;28;20168;-74
2024/03/22 02:38:16;;;;;;;18.90;14.88;;;;;;;7.03;76.43;98736.63;5032408;28;20025;-74
2024/03/22 02:40:45;;;;;;;22.25;17.90;;;;;;;6.97;75.61;98732.94;5010685;28;20044;-75
2024/03/22 02:43:10;;;;;;;19.70;17.27;;;;;;;6.85;76.09;98724.72;5018249;28;20033;-74
2024/03/22 02:45:36;;;;;;;25.17;20.05;;;;;;;6.79;75.90;98730.91;5016798;28;20030;-74
2024/03/22 02:48:01;;;;;;;20.90;16.42;;;;;;;6.71;75.80;98735.66;5034010;28;20040;-75
2024/03/22 02:50:27;;;;;;;21.20;17.35;;;;;;;6.53;76.13;98733.59;5016848;28;20492;-74
2024/03/22 02:52:52;;;;;;;16.33;14.70;;;;;;;6.39;76.65;98729.28;5029760;28;20400;-74
2024/03/22 02:55:18;;;;;;;17.45;15.60;;;;;;;6.28;76.29;98711.13;5013607;28;20080;-74
2024/03/22 02:57:43;;;;;;;17.38;13.90;;;;;;;6.24;75.78;98715.25;5033633;28;20028;-74
2024/03/22 03:00:09;;;;;;;15.43;13.52;;;;;;;6.19;75.70;98704.34;5028136;28;20029;-74
2024/03/22 03:02:35;;;;;;;15.48;12.55;;;;;;;6.23;76.26;98717.09;5034508;28;20396;-75
2024/03/22 03:05:00;;;;;;;15.15;12.25;;;;;;;6.21;75.57;98721.00;5032765;28;20041;-75
2024/03/22 03:07:26;;;;;;;13.68;12.27;;;;;;;6.19;75.99;98718.53;5016477;28;20030;-74
2024/03/22 03:09:51;;;;;;;14.30;12.32;;;;;;;6.25;75.91;98722.25;5018890;28;20045;-75
2024/03/22 03:12:16;;;;;;;13.48;12.05;;;;;;;6.24;76.26;98720.59;5034248;28;20025;-75
2024/03/22 03:14:42;;;;;;;13.45;11.60;;;;;;;6.22;76.20;98722.66;5032916;28;20034;-75
2024/03/22 03:17:07;;;;;;;14.13;12.73;;;;;;;6.16;76.79;98712.78;5032339;28;20044;-74
2024/03/22 03:19:33;;;;;;;14.98;13.38;;;;;;;6.14;77.11;98722.84;5015615;28;20034;-75
2024/03/22 03:21:58;;;;;;;15.63;13.73;;;;;;;6.04;76.98;98719.75;4999876;28;20072;-74
2024/03/22 03:24:24;;;;;;;14.52;13.02;;;;;;;5.94;77.78;98713.97;5032302;28;20223;-75
2024/03/22 03:26:49;;;;;;;15.75;12.93;;;;;;;5.94;77.98;98708.63;5032140;28;20075;-74
2024/03/22 03:29:15;;;;;;;13.85;12.45;;;;;;;5.85;77.78;98683.09;5015955;28;20030;-75
2024/03/22 03:31:40;;;;;;;14.35;12.70;;;;;;;6.00;77.65;98702.44;5015874;28;20048;-75
2024/03/22 03:34:06;;;;;;;13.88;11.95;;;;;;;5.97;78.33;98697.53;5032672;28;20048;-75
2024/03/22 03:36:31;;;;;;;15.32;12.88;;;;;;;6.07;77.51;98713.97;5025626;28;20087;-75
2024/03/22 03:38:56;;;;;;;14.20;12.73;;;;;;;6.07;77.90;98708.63;5015497;28;20095;-74
2024/03/22 03:41:22;;;;;;;15.38;11.88;;;;;;;6.15;78.56;98716.47;5031764;28;20036;-74
2024/03/22 03:43:47;;;;;;;14.18;12.68;;;;;;;6.17;78.61;98711.75;5031949;28;20041;-75
2024/03/22 03:46:13;;;;;;;13.93;12.52;;;;;;;6.10;78.27;98702.88;5032687;28;20029;-75
2024/03/22 03:48:38;;;;;;;13.98;12.05;;;;;;;6.19;78.07;98707.00;5015102;28;20087;-74
2024/03/22 03:51:05;;;;;;;13.60;12.20;;;;;;;6.14;77.25;98698.78;5015454;28;20541;-74
2024/03/22 03:53:30;;;;;;;14.27;12.77;;;;;;;6.09;77.93;98687.88;5031738;28;20045;-74
2024/03/22 03:55:56;;;;;;;14.25;12.82;;;;;;;6.14;77.74;98704.13;5032618;28;20087;-74
2024/03/22 03:58:21;;;;;;;17.60;12.52;;;;;;;6.10;77.36;98690.34;5015134;28;20033;-74
2024/03/22 04:00:46;;;;;;;13.93;12.52;;;;;;;6.12;77.49;98690.97;5022745;28;20104;-75
2024/03/22 04:03:12;;;;;;;14.20;12.63;;;;;;;6.05;76.79;98675.94;5047316;28;20463;-75
2024/03/22 04:05:37;;;;;;;15.20;13.13;;;;;;;6.23;77.99;98698.38;5027997;28;20026;-75
2024/03/22 04:08:03;;;;;;;14.02;12.45;;;;;;;6.26;78.00;98711.34;5026274;28;20056;-75
2024/03/22 04:10:28;;;;;;;17.27;15.43;;;;;;;6.26;78.17;98703.31;5031391;28;20051;-75
2024/03/22 04:12:54;;;;;;;19.30;16.63;;;;;;;6.26;77.96;98705.16;5031668;28;20037;-73
2024/03/22 04:15:19;;;;;;;19.30;16.42;;;;;;;6.20;78.13;98708.66;5029096;28;20073;-76
2024/03/22 04:17:45;;;;;;;20.58;18.35;;;;;;;6.18;78.66;98714.19;5031442;28;20078;-75
2024/03/22 04:20:11;;;;;;;21.95;17.20;;;;;;;6.19;77.89;98704.34;5045106;28;20023;-75
2024/03/22 04:22:37;;;;;;;19.20;16.20;;;;;;;6.25;77.87;98716.91;5006767;28;20040;-75
2024/03/22 04:25:02;;;;;;;17.33;15.65;;;;;;;6.16;78.75;98697.53;5031015;28;20025;-75
2024/03/22 04:27:28;;;;;;;16.45;14.75;;;;;;;6.19;77.24;98696.31;5031118;28;20033;-75
2024/03/22 04:29:53;;;;;;;17.23;15.40;;;;;;;6.16;77.60;98702.88;5028412;28;20094;-75
2024/03/22 04:32:19;;;;;;;20.42;16.75;;;;;;;6.02;77.67;98671.00;5032419;28;20037;-75
2024/03/22 04:34:44;;;;;;;21.63;18.92;;;;;;;6.18;77.26;98700.84;5028844;28;20083;-75
2024/03/22 04:37:12;;;;;;;22.10;19.70;;;;;;;6.12;78.13;98695.47;5022076;28;20037;-76
2024/03/22 04:39:38;;;;;;;23.40;19.58;;;;;;;6.23;77.36;98708.28;5031421;28;20028;-75
2024/03/22 04:42:04;;;;;;;22.40;19.55;;;;;;;6.11;77.04;98683.97;5026734;28;20034;-75
2024/03/22 04:44:29;;;;;;;22.55;20.08;;;;;;;5.99;76.72;98671.41;5007884;28;20071;-76
2024/03/22 04:46:55;;;;;;;23.45;20.88;;;;;;;6.00;76.80;98683.72;5027152;28;20037;-75
2024/03/22 04:49:20;;;;;;;21.92;19.30;;;;;;;6.02;77.13;98684.38;5030233;28;20017;-76
2024/03/22 04:51:46;;;;;;;21.52;17.77;;;;;;;6.12;77.31;98700.81;5025584;28;20037;-75
2024/03/22 04:54:11;;;;;;;23.08;20.58;;;;;;;5.94;77.14;98681.88;5030872;28;20413;-74
2024/03/22 04:56:36;;;;;;;21.95;19.58;;;;;;;5.79;77.29;98667.88;5014089;28;20073;-74
2024/03/22 04:59:02;;;;;;;26.17;21.38;;;;;;;5.76;77.51;98662.91;5029247;28;20059;-74
2024/03/22 05:01:27;;;;;;;27.98;22.67;;;;;;;5.83;78.32;98680.63;5029331;28;20117;-74
2024/03/22 05:03:52;;;;;;;30.38;23.58;;;;;;;5.68;77.82;98657.75;5030519;28;20415;-75
2024/03/22 05:06:18;;;;;;;29.65;24.05;;;;;;;5.73;78.60;98664.13;5013864;28;20044;-75
2024/03/22 05:08:44;;;;;;;30.10;23.73;;;;;;;5.74;78.54;98659.63;5013972;28;20021;-74
2024/03/22 05:11:09;;;;;;;31.50;25.15;;;;;;;5.79;78.81;98657.16;5030808;28;20061;-75
2024/03/22 05:13:34;;;;;;;37.78;29.15;;;;;;;5.89;79.10;98669.13;5030594;28;20477;-75
2024/03/22 05:16:00;;;;;;;40.28;31.90;;;;;;;5.81;79.96;98652.44;5013491;28;20052;-76
2024/03/22 05:18:25;;;;;;;34.78;28.30;;;;;;;5.95;80.38;98667.50;5030701;28;20465;-77
2024/03/22 05:20:50;;;;;;;43.13;33.38;;;;;;;5.49;80.31;98581.88;5035361;28;20120;-77
2024/03/22 05:23:16;;;;;;;51.17;39.88;;;;;;;5.94;81.08;98649.81;5044708;28;20072;-77
2024/03/22 05:25:44;;;;;;;176.93;143.30;;;;;;;5.98;81.30;98651.03;5002131;28;20480;-77
2024/03/22 05:28:10;;;;;;;69.10;53.53;;;;;;;5.94;81.35;98647.13;5029707;28;20052;-73
2024/03/22 05:30:35;;;;;;;67.75;54.78;;;;;;;5.91;80.87;98639.50;5012715;28;20396;-76
2024/03/22 05:33:00;;;;;;;42.38;33.72;;;;;;;6.11;80.71;98675.13;5017709;28;20073;-76
2024/03/22 05:35:27;;;;;;;39.40;31.40;;;;;;;6.06;81.97;98665.06;4999457;28;20084;-76
2024/03/22 05:37:52;;;;;;;42.20;31.92;;;;;;;6.11;81.47;98651.06;5030457;28;20546;-75
2024/03/22 05:40:18;;;;;;;47.35;34.95;;;;;;;6.16;81.61;98648.63;5018014;28;20034;-76
2024/03/22 05:42:43;;;;;;;46.05;34.42;;;;;;;6.18;82.00;98638.53;5018542;28;20108;-76
2024/03/22 05:45:09;;;;;;;42.53;33.50;;;;;;;6.20;81.89;98631.13;5035719;28;20079;-76
2024/03/22 05:47:34;;;;;;;45.70;34.47;;;;;;;6.38;81.89;98647.38;5018283;28;20033;-76
2024/03/22 05:50:00;;;;;;;45.03;33.67;;;;;;;6.42;82.49;98647.78;5018326;28;20404;-76
2024/03/22 05:52:25;;;;;;;52.63;37.35;;;;;;;6.39;82.22;98638.31;5018773;28;20109;-76
2024/03/22 05:54:51;;;;;;;48.53;36.95;;;;;;;6.35;82.18;98634.38;5035189;28;20041;-76
2024/03/22 05:57:16;;;;;;;56.55;39.90;;;;;;;6.32;83.14;98637.50;5035306;28;20030;-76
2024/03/22 05:59:42;;;;;;;51.22;37.90;;;;;;;6.23;83.25;98620.03;5034423;28;20044;-77
2024/03/22 06:02:07;;;;;;;53.88;38.88;;;;;;;6.32;82.78;98625.97;5037028;28;20040;-77
2024/03/22 06:04:33;;;;;;;52.65;37.38;;;;;;;6.40;82.79;98629.25;5034676;28;20087;-78
2024/03/22 06:06:59;;;;;;;54.90;39.33;;;;;;;6.52;83.76;98627.59;5017856;28;20021;-76
2024/03/22 06:09:36;;;;;;;55.72;40.10;;;;;;;6.53;83.57;98591.78;5011975;28;20026;-77
2024/03/22 06:12:03;;;;;;;52.63;38.28;;;;;;;6.79;83.59;98615.00;5029113;28;20088;-77
2024/03/22 06:14:29;;;;;;;54.53;39.15;;;;;;;6.92;84.34;98617.63;5017867;28;20083;-78
2024/03/22 06:16:54;;;;;;;52.03;37.83;;;;;;;6.92;83.63;98597.03;5033802;28;20041;-78
2024/03/22 06:19:20;;;;;;;49.85;37.47;;;;;;;7.02;83.60;98601.94;5018690;28;20033;-77
2024/03/22 06:21:45;;;;;;;49.92;35.28;;;;;;;7.07;84.20;98593.28;5037259;28;20045;-78
2024/03/22 06:24:11;;;;;;;51.90;37.20;;;;;;;7.24;83.91;98607.81;5034986;28;20022;-78
2024/03/22 06:26:36;;;;;;;48.97;36.10;;;;;;;7.35;83.72;98607.16;5017633;28;20060;-77
2024/03/22 06:29:02;;;;;;;49.95;36.80;;;;;;;7.33;83.14;98593.13;5035992;28;20026;-76
2024/03/22 06:31:28;;;;;;;50.08;38.15;;;;;;;7.44;83.51;98598.66;5033727;28;20572;-76
2024/03/22 06:33:54;;;;;;;53.20;39.00;;;;;;;7.44;82.86;98589.81;5003795;28;20025;-75
2024/03/22 06:36:19;;;;;;;51.72;37.75;;;;;;;7.59;83.50;98609.06;5005398;28;20033;-76
2024/03/22 06:38:45;;;;;;;49.70;37.08;;;;;;;7.66;82.97;98609.84;5022806;28;20076;-76
2024/03/22 06:41:10;;;;;;;47.72;36.45;;;;;;;7.73;82.89;98610.63;5016024;28;20570;-76
2024/03/22 06:43:35;;;;;;;48.92;35.80;;;;;;;7.63;82.53;98586.19;5030910;28;20030;-77
2024/03/22 06:46:01;;;;;;;49.60;34.92;;;;;;;7.76;83.19;98604.03;5033010;28;20096;-76
2024/03/22 06:48:26;;;;;;;43.85;33.60;;;;;;;7.75;82.82;98597.03;5076467;23;20094;-75
2024/03/22 06:50:51;;;;;;;46.85;35.47;;;;;;;7.70;82.21;98573.56;5039171;28;20041;-75
2024/03/22 06:53:17;;;;;;;48.25;35.03;;;;;;;7.67;82.10;98557.91;5022114;28;20028;-75
2024/03/22 06:55:42;;;;;;;45.38;33.92;;;;;;;7.91;81.49;98580.44;5020333;28;20465;-74
2024/03/22 06:58:07;;;;;;;42.85;35.00;;;;;;;7.86;81.91;98575.72;5050096;28;20025;-75
2024/03/22 07:00:36;;;;;;;43.08;35.17;;;;;;;7.94;81.70;98575.44;5003799;28;20036;-75
2024/03/22 07:03:02;;;;;;;51.53;36.28;;;;;;;8.03;81.27;98584.00;5017201;28;20480;-75
2024/03/22 07:05:28;;;;;;;44.30;34.88;;;;;;;8.00;81.89;98579.94;5032805;28;20047;-75
2024/03/22 07:07:55;;;;;;;44.50;33.03;;;;;;;8.14;81.77;98586.84;5016245;28;20107;-75
2024/03/22 07:10:22;;;;;;;43.17;31.98;;;;;;;8.12;80.79;98572.81;5006081;28;20029;-77
2024/03/22 07:12:47;;;;;;;47.00;33.55;;;;;;;8.33;81.00;98596.59;5026322;28;20824;-76
2024/03/22 07:15:13;;;;;;;45.50;33.85;;;;;;;8.19;81.14;98557.47;5021778;28;20045;-76
2024/03/22 07:17:38;;;;;;;41.10;31.58;;;;;;;8.28;80.88;98566.91;5008862;28;20119;-77
2024/03/22 07:20:05;;;;;;;39.40;30.92;;;;;;;8.44;80.54;98578.97;5024434;28;20040;-76
2024/03/22 07:22:30;;;;;;;43.75;32.03;;;;;;;8.56;80.31;98579.06;5017087;28;20061;-77
2024/03/22 07:24:55;;;;;;;41.90;30.33;;;;;;;8.64;79.00;98584.09;5024166;28;20032;-76
2024/03/22 07:27:21;;;;;;;43.90;31.58;;;;;;;8.71;78.94;98579.50;5043600;28;20032;-76
2024/03/22 07:29:46;;;;;;;38.47;29.20;;;;;;;8.75;78.66;98588.75;5004272;28;20125;-76
2024/03/22 07:32:12;;;;;;;37.38;29.23;;;;;;;8.68;78.52;98566.53;5035306;28;20033;-74
2024/03/22 07:34:37;;;;;;;36.55;29.40;;;;;;;8.71;78.55;98564.22;5047029;28;20040;-76
2024/03/22 07:37:04;;;;;;;37.08;27.90;;;;;;;8.80;78.02;98570.09;5017938;28;20028;-76
2024/03/22 07:39:30;;;;;;;35.95;28.45;;;;;;;8.86;77.41;98585.34;5030922;28;20464;-76
2024/03/22 07:41:55;;;;;;;37.28;28.98;;;;;;;8.99;77.47;98590.53;5040409;28;20392;-76
2024/03/22 07:44:26;;;;;;;32.72;26.58;;;;;;;8.96;77.51;98569.53;5010933;28;20127;-76
2024/03/22 07:46:51;;;;;;;34.50;28.13;;;;;;;9.05;77.18;98570.84;5030331;28;20149;-76
2024/03/22 07:49:17;;;;;;;36.70;27.40;;;;;;;9.22;77.02;98584.50;5010637;28;20430;-76
2024/03/22 07:51:43;;;;;;;37.63;26.83;;;;;;;9.22;77.46;98571.84;5033511;28;20112;-76
2024/03/22 07:54:08;;;;;;;33.28;26.20;;;;;;;9.35;76.80;98579.78;5025866;28;20392;-76
2024/03/22 07:56:34;;;;;;;31.40;25.15;;;;;;;9.47;76.43;98580.66;5000555;28;20045;-76
2024/03/22 07:58:59;;;;;;;32.65;25.30;;;;;;;9.56;76.26;98571.22;5017576;28;20100;-76
2024/03/22 08:01:25;;;;;;;32.75;24.92;;;;;;;9.71;75.81;98585.03;5021351;28;20043;-76
2024/03/22 08:03:53;;;;;;;32.20;25.23;;;;;;;9.72;75.84;98570.56;5047133;28;20060;-76
2024/03/22 08:06:19;;;;;;;31.88;24.60;;;;;;;9.62;75.19;98532.63;5009508;28;20032;-76
2024/03/22 08:08:44;;;;;;;31.80;24.13;;;;;;;9.99;74.87;98575.53;5019210;28;20365;-76
2024/03/22 08:11:10;;;;;;;31.38;25.40;;;;;;;10.04;74.40;98567.56;5034281;28;20432;-75
2024/03/22 08:13:36;;;;;;;30.55;23.55;;;;;;;10.21;73.99;98565.88;5025852;28;20043;-76
2024/03/22 08:16:01;;;;;;;33.00;24.25;;;;;;;10.36;74.20;98566.25;5007561;28;20032;-76
2024/03/22 08:18:26;;;;;;;29.45;23.58;;;;;;;10.39;74.32;98555.00;5019623;28;20436;-76
2024/03/22 08:20:52;;;;;;;29.98;23.08;;;;;;;10.55;73.76;98553.47;5011100;28;20032;-76
2024/03/22 08:23:20;;;;;;;28.77;22.88;;;;;;;10.72;73.03;98565.97;5019651;28;20032;-76
2024/03/22 08:25:45;;;;;;;30.83;22.83;;;;;;;10.98;72.95;98576.25;5008896;28;20029;-76
2024/03/22 08:28:11;;;;;;;26.30;21.52;;;;;;;11.08;71.62;98571.06;5035999;28;20498;-76
2024/03/22 08:30:39;;;;;;;26.00;20.42;;;;;;;11.17;71.37;98573.38;5019306;28;20059;-76
2024/03/22 08:33:05;;;;;;;27.65;21.10;;;;;;;11.48;71.43;98576.44;5046780;28;20029;-76
2024/03/22 08:35:30;;;;;;;28.63;20.83;;;;;;;11.46;69.92;98561.59;5020651;28;20029;-76
2024/03/22 08:37:56;;;;;;;24.60;19.70;;;;;;;11.42;69.21;98547.75;5017290;28;20020;-77
2024/03/22 08:40:22;;;;;;;30.45;20.40;;;;;;;11.47;69.40;98530.84;5034851;28;20029;-76
2024/03/22 08:42:48;;;;;;;26.95;20.35;;;;;;;11.82;68.95;98553.09;5027057;28;20452;-76
2024/03/22 08:45:14;;;;;;;27.48;19.73;;;;;;;12.06;67.54;98559.16;5033586;28;20535;-77
2024/03/22 08:47:40;;;;;;;26.83;19.60;;;;;;;12.11;68.22;98548.47;5013373;28;20025;-77
2024/03/22 08:50:06;;;;;;;26.27;20.35;;;;;;;12.20;66.76;98536.19;5008066;28;20064;-76
2024/03/22 08:52:32;;;;;;;25.50;19.73;;;;;;;12.26;66.56;98552.22;5034921;28;20431;-77
2024/03/22 08:54:57;;;;;;;25.52;18.75;;;;;;;12.22;65.73;98542.97;5039732;28;20033;-76
2024/03/22 08:57:23;;;;;;;26.60;19.42;;;;;;;12.28;65.58;98523.06;5028311;28;20032;-76
2024/03/22 08:59:48;;;;;;;30.85;20.88;;;;;;;12.58;65.67;98538.91;5008462;28;20123;-76
2024/03/22 09:02:14;;;;;;;25.10;20.10;;;;;;;12.53;65.08;98508.31;5009096;28;20025;-77
2024/03/22 09:04:40;;;;;;;24.60;18.90;;;;;;;12.60;64.84;98508.94;5025449;28;20029;-76
2024/03/22 09:07:05;;;;;;;26.77;19.77;;;;;;;12.42;64.81;98497.34;5021232;28;20070;-77
2024/03/22 09:09:30;;;;;;;29.73;19.90;;;;;;;12.68;64.59;98511.22;5009025;28;20033;-77
2024/03/22 09:11:56;;;;;;;30.20;21.60;;;;;;;12.62;64.48;98501.41;5020619;28;20032;-76
2024/03/22 09:14:21;;;;;;;30.77;20.58;;;;;;;12.68;64.07;98489.59;5035714;28;20462;-77
2024/03/22 09:16:47;;;;;;;26.60;19.88;;;;;;;12.84;63.67;98499.53;5013354;28;20068;-77
2024/03/22 09:19:12;;;;;;;27.33;19.90;;;;;;;12.72;64.24;98490.75;5008941;28;20034;-76
2024/03/22 09:21:38;;;;;;;29.52;20.20;;;;;;;12.76;64.59;98476.47;5018632;28;20112;-77
2024/03/22 09:24:03;;;;;;;30.20;20.60;;;;;;;13.14;64.08;98499.91;5033770;28;20044;-77
2024/03/22 09:26:29;;;;;;;27.17;19.83;;;;;;;13.10;63.28;98496.09;5027942;28;20025;-77
2024/03/22 09:28:54;;;;;;;25.92;19.17;;;;;;;13.24;63.64;98489.22;5000573;28;20115;-76
2024/03/22 09:31:20;;;;;;;30.05;20.63;;;;;;;13.34;62.64;98500.16;5022776;28;20531;-77
2024/03/22 09:33:45;;;;;;;26.98;19.23;;;;;;;13.11;62.69;98468.00;5041419;28;20040;-77
2024/03/22 09:36:10;;;;;;;27.45;19.23;;;;;;;13.16;63.11;98465.34;5018253;28;20025;-77
2024/03/22 09:38:36;;;;;;;27.08;18.73;;;;;;;13.27;63.07;98488.72;5010863;28;20560;-77
2024/03/22 09:41:01;;;;;;;27.02;19.55;;;;;;;13.15;63.00;98474.53;5022361;28;20025;-77
2024/03/22 09:43:27;;;;;;;25.02;18.35;;;;;;;13.21;62.57;98470.78;5034484;28;20438;-77
2024/03/22 09:45:54;;;;;;;25.65;17.70;;;;;;;13.24;62.40;98454.06;5015255;28;20052;-76
2024/03/22 09:48:19;;;;;;;25.30;17.90;;;;;;;13.44;61.46;98478.59;5018829;28;20041;-76
2024/03/22 09:50:48;;;;;;;23.02;17.50;;;;;;;13.35;61.66;98452.28;5032305;28;20032;-77
2024/03/22 09:53:18;;;;;;;23.65;17.63;;;;;;;13.51;61.58;98473.78;5008569;28;20055;-77
2024/03/22 09:55:45;;;;;;;25.60;17.63;;;;;;;13.39;62.38;98465.06;5021631;28;20036;-77
2024/03/22 09:58:10;;;;;;;29.23;19.73;;;;;;;13.23;62.03;98433.50;5016834;28;20027;-77
2024/03/22 10:00:36;;;;;;;24.25;17.73;;;;;;;13.52;61.08;98453.78;5028931;28;20451;-77
2024/03/22 10:03:03;;;;;;;22.98;16.48;;;;;;;13.66;59.88;98443.34;5008872;28;20025;-77
2024/03/22 10:05:29;;;;;;;28.17;18.25;;;;;;;13.79;61.13;98465.38;5020003;28;20091;-76
2024/03/22 10:07:55;;;;;;;20.40;14.57;;;;;;;13.75;60.18;98450.75;5013964;28;20024;-77
2024/03/22 10:10:20;;;;;;;39.25;28.65;;;;;;;14.00;60.03;98433.06;5012225;28;20545;-77
2024/03/22 10:12:46;;;;;;;27.73;20.45;;;;;;;14.17;60.07;98417.47;5015567;28;20430;-77
2024/03/22 10:15:12;;;;;;;28.75;21.65;;;;;;;14.47;59.82;98450.16;5040438;28;20037;-77
2024/03/22 10:17:39;;;;;;;29.05;20.90;;;;;;;14.54;59.19;98445.34;5014263;28;20024;-77
2024/03/22 10:20:09;;;;;;;28.65;19.25;;;;;;;14.55;60.25;98428.00;5050710;28;20032;-77
2024/03/22 10:22:35;;;;;;;21.27;16.23;;;;;;;14.70;59.23;98422.66;5014587;28;20080;-77
2024/03/22 10:25:00;;;;;;;21.08;15.77;;;;;;;14.73;59.28;98422.09;5031953;28;20056;-77
2024/03/22 10:27:29;;;;;;;23.23;17.00;;;;;;;14.77;59.00;98396.09;5009053;28;20044;-77
2024/03/22 10:29:54;;;;;;;21.95;16.95;;;;;;;15.06;59.89;98399.97;5028316;28;20028;-77
2024/03/22 10:32:20;;;;;;;21.80;15.20;;;;;;;15.23;58.15;98384.28;5032551;28;20032;-77
2024/03/22 10:34:46;;;;;;;20.67;15.68;;;;;;;15.38;57.97;98401.66;5005089;28;20017;-77
2024/03/22 10:37:14;;;;;;;22.10;15.77;;;;;;;15.60;57.68;98404.94;5033379;28;20040;-76
2024/03/22 10:39:40;;;;;;;21.48;15.15;;;;;;;15.62;58.08;98391.91;5015156;28;20017;-77
2024/03/22 10:42:06;;;;;;;26.13;15.18;;;;;;;15.84;57.89;98400.63;5031666;28;20079;-77
2024/03/22 10:44:37;;;;;;;22.25;16.42;;;;;;;15.89;57.28;98392.47;5037759;28;20029;-77
2024/03/22 10:47:04;;;;;;;23.33;16.42;;;;;;;15.91;56.84;98365.84;5029523;28;20047;-77
2024/03/22 10:49:30;;;;;;;18.80;14.38;;;;;;;16.13;56.38;98365.50;5021181;28;20053;-77
2024/03/22 10:51:58;;;;;;;20.92;14.65;;;;;;;16.26;56.12;98360.31;5012350;28;20032;-77
2024/03/22 10:54:34;;;;;;;19.60;14.30;;;;;;;16.29;54.96;98357.03;5036436;28;20029;-79
2024/03/22 10:56:59;;;;;;;;;;;;;;;16.25;55.56;98372.25;5003374;28;20132;-79
2024/03/22 10:59:25;;;;;;;14.77;12.63;;;;;;;16.05;55.55;98345.16;5013097;28;19949;-79
2024/03/22 11:01:50;;;;;;;16.08;12.45;;;;;;;16.08;56.22;98306.56;5045520;28;20028;-77
2024/03/22 11:04:17;;;;;;;19.05;13.65;;;;;;;16.39;54.92;98357.00;5020061;28;20021;-79
2024/03/22 11:06:50;;;;;;;15.88;12.90;;;;;;;16.22;55.50;98321.19;5035608;28;20036;-79
2024/03/22 11:09:21;;;;;;;17.92;12.82;;;;;;;16.28;55.26;98347.25;5049543;28;20033;-78
2024/03/22 11:11:46;;;;;;;17.40;12.70;;;;;;;16.22;55.53;98326.63;5019207;28;20054;-77
2024/03/22 11:14:12;;;;;;;16.80;12.88;;;;;;;16.19;54.97;98332.63;5008353;28;20473;-79
2024/03/22 11:16:37;;;;;;;15.85;12.10;;;;;;;16.52;55.52;98326.50;5028991;28;20033;-78